Time;durP1;ratioP1;P1;durP2;ratioP2;P2;SDS_P1;SDS_P2;PMS_P1;PMS_P2;Temp;Humidity;BMP_temperature;BMP_pressure;BME280_temperature;BME280_humidity;BME280_pressure;Samples;Min_cycle;Max_cycle;Signal;HPM_P1;HPM_P2
2023/05/18 17:13:58;;;;;;;6.20;4.60;;;;;;;23.62;30.84;100559.77;104439;1298;545084;-77
2023/05/18 17:16:27;;;;;;;4.60;4.20;;;;;;;23.70;30.69;100557.21;105730;1284;137312;-77
2023/05/18 17:18:54;;;;;;;4.90;3.60;;;;;;;23.72;30.81;100558.64;105371;1284;22665;-79
2023/05/18 17:21:22;;;;;;;5.10;4.10;;;;;;;23.72;30.92;100560.38;105207;1284;136954;-79
2023/05/18 17:23:49;;;;;;;12.50;4.80;;;;;;;23.71;31.15;100562.39;106134;1285;22583;-76
2023/05/18 17:26:16;;;;;;;4.70;4.30;;;;;;;23.71;31.29;100563.86;105873;1283;201376;-77
2023/05/18 17:28:43;;;;;;;5.90;3.80;;;;;;;23.70;31.38;100566.86;105335;1281;137959;-77
2023/05/18 17:31:09;;;;;;;5.90;4.10;;;;;;;23.62;31.63;100558.73;105938;1275;23807;-75
2023/05/18 17:33:36;;;;;;;4.30;4.00;;;;;;;23.67;32.01;100570.02;106775;1275;137933;-75
2023/05/18 17:36:03;;;;;;;5.10;4.70;;;;;;;23.56;32.17;100561.18;106425;1275;139390;-76
2023/05/18 17:38:31;;;;;;;5.30;4.60;;;;;;;23.59;32.14;100576.38;105867;1275;23899;-76
2023/05/18 17:40:57;;;;;;;8.10;5.20;;;;;;;23.58;32.06;100577.62;105776;1276;137327;-76
2023/05/18 17:43:24;;;;;;;9.90;4.90;;;;;;;23.57;32.21;100580.39;106716;1275;39505;-78
2023/05/18 17:45:51;;;;;;;5.10;4.60;;;;;;;23.56;32.35;100581.64;108155;1276;749963;-76
2023/05/18 17:48:18;;;;;;;8.50;4.90;;;;;;;23.55;32.65;100584.14;108133;1270;137235;-75
2023/05/18 17:50:46;;;;;;;6.30;5.60;;;;;;;23.52;32.85;100589.41;105765;1274;24258;-76
2023/05/18 17:53:13;;;;;;;6.30;5.00;;;;;;;23.49;32.92;100590.00;106249;1270;138755;-75
2023/05/18 17:55:40;;;;;;;4.80;4.30;;;;;;;23.39;33.01;100584.10;105718;1277;24629;-75
2023/05/18 17:58:07;;;;;;;8.10;4.80;;;;;;;23.42;32.98;100598.41;106436;1276;137743;-75
2023/05/18 18:00:34;;;;;;;6.60;4.50;;;;;;;23.39;32.90;100600.36;105952;1274;137709;-76
2023/05/18 18:03:01;;;;;;;8.00;4.40;;;;;;;23.37;32.81;100602.05;105716;1276;22581;-71
2023/05/18 18:05:28;;;;;;;6.40;4.90;;;;;;;23.34;32.95;100601.34;105616;1271;137630;-71
2023/05/18 18:07:57;;;;;;;4.30;3.90;;;;;;;23.33;33.06;100605.80;105717;1277;22680;-71
2023/05/18 18:10:23;;;;;;;8.80;4.80;;;;;;;23.30;33.16;100610.98;105623;1274;137208;-71
2023/05/18 18:12:50;;;;;;;6.80;4.40;;;;;;;23.26;33.29;100609.52;105664;1273;138156;-74
2023/05/18 18:15:17;;;;;;;5.10;4.50;;;;;;;23.23;33.44;100610.10;105717;1277;25435;-71
2023/05/18 18:17:44;;;;;;;4.50;4.10;;;;;;;23.20;33.64;100613.35;105613;1274;137501;-72
2023/05/18 18:20:11;;;;;;;6.00;4.20;;;;;;;23.17;33.77;100619.98;105585;1277;138782;-70
2023/05/18 18:22:38;;;;;;;6.50;4.50;;;;;;;23.14;33.85;100624.27;105838;1276;22567;-69
2023/05/18 18:25:05;;;;;;;4.70;4.20;;;;;;;23.10;33.99;100624.78;105702;1276;139263;-71
2023/05/18 18:27:32;;;;;;;4.10;3.90;;;;;;;23.07;34.17;100626.08;105684;1276;24394;-70
2023/05/18 18:29:59;;;;;;;6.80;4.90;;;;;;;23.04;34.37;100623.30;105573;1276;137200;-72
2023/05/18 18:32:26;;;;;;;4.70;4.30;;;;;;;22.94;34.69;100615.88;105735;1274;137681;-73
2023/05/18 18:34:53;;;;;;;4.70;4.30;;;;;;;22.96;34.77;100627.66;109801;1274;24625;-78
2023/05/18 18:37:19;;;;;;;4.80;4.40;;;;;;;22.89;34.95;100623.67;108485;1275;138302;-72
2023/05/18 18:39:46;;;;;;;4.50;4.00;;;;;;;22.85;35.24;100627.02;105746;1275;25360;-70
2023/05/18 18:42:13;;;;;;;5.50;4.60;;;;;;;22.82;35.46;100632.71;105819;1274;140300;-73
2023/05/18 18:44:41;;;;;;;4.80;4.20;;;;;;;22.75;35.79;100634.35;105819;1268;138035;-69
2023/05/18 18:47:08;;;;;;;5.80;4.20;;;;;;;22.69;36.04;100632.69;105751;1274;25438;-73
2023/05/18 18:49:34;;;;;;;4.20;3.70;;;;;;;22.63;36.19;100631.17;109698;1275;137362;-76
2023/05/18 18:52:01;;;;;;;5.20;4.80;;;;;;;22.59;36.52;100633.70;109849;1275;22320;-75
2023/05/18 18:54:28;;;;;;;4.60;4.10;;;;;;;22.55;36.54;100635.52;109773;1274;23497;-74
2023/05/18 18:56:55;;;;;;;4.80;4.40;;;;;;;22.51;37.09;100638.70;109714;1275;138647;-75
2023/05/18 18:59:22;;;;;;;4.10;3.80;;;;;;;22.44;37.51;100638.55;109793;1275;23558;-78
2023/05/18 19:01:49;;;;;;;4.90;4.60;;;;;;;22.35;38.00;100638.41;109695;1275;137892;-75
2023/05/18 19:04:16;;;;;;;4.40;4.10;;;;;;;22.20;38.25;100632.89;109716;1275;139812;-74
2023/05/18 19:06:45;;;;;;;4.40;4.00;;;;;;;22.20;38.34;100643.80;109776;1274;23016;-71
2023/05/18 19:09:11;;;;;;;7.80;4.40;;;;;;;22.14;38.73;100644.79;109705;1275;137707;-70
2023/05/18 19:11:38;;;;;;;5.00;4.10;;;;;;;22.10;39.16;100644.86;109813;1274;22442;-73
2023/05/18 19:14:05;;;;;;;17.70;4.90;;;;;;;22.04;39.47;100643.16;109703;1274;138465;-71
2023/05/18 19:16:32;;;;;;;6.20;5.10;;;;;;;21.95;39.81;100643.41;109489;1275;139832;-69
2023/05/18 19:18:58;;;;;;;4.60;4.20;;;;;;;21.81;40.23;100634.10;109687;1277;22191;-76
2023/05/18 19:21:25;;;;;;;5.50;5.00;;;;;;;21.74;40.34;100636.14;109669;1283;139177;-73
2023/05/18 19:23:52;;;;;;;5.40;4.80;;;;;;;21.74;40.43;100645.55;109728;1277;22981;-75
2023/05/18 19:26:18;;;;;;;6.20;5.70;;;;;;;21.70;40.43;100645.86;109633;1278;138838;-72
2023/05/18 19:28:45;;;;;;;8.90;4.90;;;;;;;21.67;40.37;100645.02;109706;1277;137882;-76
2023/05/18 19:31:12;;;;;;;6.10;4.70;;;;;;;21.66;40.43;100651.73;109694;1283;22373;-72
2023/05/18 19:33:39;;;;;;;5.40;5.00;;;;;;;21.64;40.97;100652.69;109711;1280;137622;-73
2023/05/18 19:36:05;;;;;;;6.30;5.70;;;;;;;21.59;41.02;100650.85;109719;1276;139113;-72
2023/05/18 19:38:32;;;;;;;6.10;5.30;;;;;;;21.54;41.24;100651.55;109806;1278;23303;-72
2023/05/18 19:40:59;;;;;;;10.50;5.70;;;;;;;21.48;41.52;100654.36;109628;1283;138513;-71
2023/05/18 19:43:26;;;;;;;5.70;5.20;;;;;;;21.41;41.92;100651.31;109807;1283;22323;-73
2023/05/18 19:45:52;;;;;;;5.50;5.00;;;;;;;21.35;41.84;100653.95;109641;1276;137969;-73
2023/05/18 19:48:19;;;;;;;6.30;5.40;;;;;;;21.31;41.84;100651.24;109698;1283;137421;-71
2023/05/18 19:50:46;;;;;;;8.10;5.70;;;;;;;21.26;41.42;100649.67;109844;1275;22255;-70
2023/05/18 19:53:13;;;;;;;5.90;5.40;;;;;;;21.24;40.49;100648.88;109648;1283;137935;-71
2023/05/18 19:55:40;;;;;;;7.80;5.70;;;;;;;21.19;40.11;100640.42;109808;1276;22720;-70
2023/05/18 19:58:07;;;;;;;8.70;6.20;;;;;;;21.24;39.73;100642.70;109486;1277;137499;-75
2023/05/18 20:00:36;;;;;;;8.40;7.30;;;;;;;21.31;39.71;100648.20;109637;1279;137700;-74
2023/05/18 20:03:03;;;;;;;7.20;5.60;;;;;;;21.27;39.44;100638.62;109793;1283;23016;-69
2023/05/18 20:05:32;;;;;;;6.30;5.90;;;;;;;21.36;39.11;100651.64;109727;1283;137304;-72
2023/05/18 20:08:00;;;;;;;6.90;6.30;;;;;;;21.38;38.88;100651.77;109753;1280;22303;-74
2023/05/18 20:10:27;;;;;;;10.90;6.20;;;;;;;21.41;38.90;100655.05;109710;1283;138292;-72
2023/05/18 20:12:55;;;;;;;9.30;6.50;;;;;;;21.41;38.82;100657.45;109482;1280;138396;-73
2023/05/18 20:15:21;;;;;;;6.80;6.30;;;;;;;21.43;38.87;100659.27;109721;1280;23010;-70
2023/05/18 20:17:48;;;;;;;6.50;6.00;;;;;;;21.44;38.77;100661.31;109665;1283;137833;-79
2023/05/18 20:20:15;;;;;;;8.00;6.40;;;;;;;21.45;38.70;100662.89;109660;1282;137675;-73
2023/05/18 20:22:42;;;;;;;6.30;5.70;;;;;;;21.46;38.64;100662.03;109863;1275;22350;-74
2023/05/18 20:25:10;;;;;;;11.80;6.60;;;;;;;21.45;38.60;100665.83;109769;1276;139284;-70
2023/05/18 20:27:37;;;;;;;7.00;6.40;;;;;;;21.45;38.47;100666.79;109872;1280;22213;-74
2023/05/18 20:30:04;;;;;;;7.40;6.80;;;;;;;21.45;38.74;100666.41;109758;1280;137609;-69
2023/05/18 20:32:32;;;;;;;8.60;6.60;;;;;;;21.36;39.11;100659.18;109748;1279;139279;-71
2023/05/18 20:34:59;;;;;;;9.40;6.70;;;;;;;21.31;39.69;100661.39;109877;1264;22411;-74
2023/05/18 20:37:25;;;;;;;7.80;6.90;;;;;;;21.33;39.36;100668.35;109909;1276;136375;-74
2023/05/18 20:39:56;;;;;;;7.00;6.50;;;;;;;21.30;38.97;100673.95;109910;1276;23148;-74
2023/05/18 20:42:22;;;;;;;9.30;8.30;;;;;;;21.30;38.89;100674.70;109798;1277;138498;-71
2023/05/18 20:44:52;;;;;;;8.20;7.40;;;;;;;21.30;38.83;100678.17;109789;1276;137730;-73
2023/05/18 20:47:19;;;;;;;8.30;7.10;;;;;;;21.30;38.69;100680.13;109945;1273;22988;-73
2023/05/18 20:49:46;;;;;;;8.90;6.90;;;;;;;21.30;38.64;100679.70;109870;1272;138256;-69
2023/05/18 20:52:13;;;;;;;7.40;6.60;;;;;;;21.31;39.02;100682.64;109925;1280;137540;-70
2023/05/18 20:54:40;;;;;;;8.20;7.50;;;;;;;21.29;39.32;100681.04;109994;1280;23255;-74
2023/05/18 20:57:07;;;;;;;8.20;7.50;;;;;;;21.26;39.74;100682.41;109881;1277;139249;-71
2023/05/18 20:59:34;;;;;;;11.60;8.00;;;;;;;21.21;41.28;100681.91;109973;1273;22925;-72
2023/05/18 21:02:01;;;;;;;8.20;7.30;;;;;;;21.14;40.52;100680.04;109676;1275;137798;-70
2023/05/18 21:04:29;;;;;;;10.50;9.50;;;;;;;21.11;40.79;100678.63;109768;1280;137798;-71
2023/05/18 21:06:56;;;;;;;7.70;7.00;;;;;;;21.07;41.08;100680.80;109909;1274;22856;-70
2023/05/18 21:09:22;;;;;;;11.70;9.10;;;;;;;21.03;41.35;100680.70;109831;1275;137543;-74
2023/05/18 21:11:49;;;;;;;12.60;9.80;;;;;;;20.98;42.84;100680.62;109803;1278;22690;-70
2023/05/18 21:14:16;;;;;;;10.40;9.40;;;;;;;20.90;43.79;100678.45;109751;1280;138643;-75
2023/05/18 21:16:44;;;;;;;10.20;9.20;;;;;;;20.81;43.35;100676.97;109801;1272;139010;-72
2023/05/18 21:19:11;;;;;;;12.20;9.40;;;;;;;20.75;44.17;100677.05;109867;1275;22390;-71
2023/05/18 21:21:37;;;;;;;11.00;10.00;;;;;;;20.69;44.13;100681.33;109781;1274;139482;-69
2023/05/18 21:24:04;;;;;;;12.00;10.70;;;;;;;20.63;45.55;100681.71;109842;1273;138157;-70
2023/05/18 21:26:31;;;;;;;12.80;11.10;;;;;;;20.55;46.11;100681.67;109971;1276;22376;-71
2023/05/18 21:28:57;;;;;;;12.80;11.60;;;;;;;20.48;46.97;100683.07;109845;1280;139474;-69
2023/05/18 21:31:24;;;;;;;16.60;11.90;;;;;;;20.39;47.78;100685.98;109971;1280;22218;-71
2023/05/18 21:33:51;;;;;;;13.80;12.40;;;;;;;20.32;48.18;100686.81;109925;1280;138517;-70
2023/05/18 21:36:32;;;;;;;13.70;11.40;;;;;;;20.24;48.97;100689.23;109854;1273;139165;-76
2023/05/18 21:39:04;;;;;;;13.30;11.80;;;;;;;20.17;49.81;100692.36;109979;1277;22416;-73
2023/05/18 21:41:31;;;;;;;14.30;11.30;;;;;;;20.09;50.21;100693.29;109925;1276;138719;-73
2023/05/18 21:43:57;;;;;;;11.60;10.50;;;;;;;20.02;50.81;100699.77;109959;1275;22187;-71
2023/05/18 21:46:24;;;;;;;10.50;9.20;;;;;;;19.95;47.94;100703.91;109860;1275;137583;-71
2023/05/18 21:48:51;;;;;;;11.00;8.50;;;;;;;19.93;46.71;100708.25;109843;1280;138502;-68
2023/05/18 21:51:17;;;;;;;10.20;9.20;;;;;;;19.95;46.32;100706.39;109993;1274;23164;-69
2023/05/18 21:53:44;;;;;;;9.80;8.10;;;;;;;19.96;45.64;100697.13;109932;1280;138669;-69
2023/05/18 21:56:11;;;;;;;10.50;7.80;;;;;;;19.99;44.65;100694.08;109757;1279;139255;-70
2023/05/18 21:58:38;;;;;;;9.20;7.80;;;;;;;20.06;44.02;100699.55;109940;1281;22512;-68
2023/05/18 22:01:04;;;;;;;11.20;8.60;;;;;;;20.14;43.98;100700.67;109879;1273;138864;-75
2023/05/18 22:03:31;;;;;;;8.70;7.90;;;;;;;20.20;44.67;100702.54;110063;1274;22250;-72
2023/05/18 22:05:58;;;;;;;9.30;8.40;;;;;;;20.22;44.67;100703.48;109943;1273;139707;-68
2023/05/18 22:08:26;;;;;;;11.20;9.90;;;;;;;20.23;44.91;100703.89;109943;1279;137978;-69
2023/05/18 22:10:52;;;;;;;10.80;9.60;;;;;;;20.21;45.08;100702.27;110039;1274;22988;-72
2023/05/18 22:13:19;;;;;;;11.00;9.80;;;;;;;20.17;45.70;100697.98;109940;1277;138144;-71
2023/05/18 22:15:45;;;;;;;13.20;10.70;;;;;;;20.14;46.09;100698.89;110095;1273;22342;-69
2023/05/18 22:18:12;;;;;;;11.60;10.50;;;;;;;20.12;46.90;100699.99;110018;1280;139305;-69
2023/05/18 22:20:40;;;;;;;11.40;10.30;;;;;;;20.08;47.14;100701.81;110179;1273;137068;-73
2023/05/18 22:23:07;;;;;;;10.60;9.60;;;;;;;20.03;47.31;100698.01;110325;1276;22216;-72
2023/05/18 22:25:34;;;;;;;17.20;10.60;;;;;;;19.99;47.31;100697.05;110159;1278;136983;-71
2023/05/18 22:28:01;;;;;;;12.00;10.80;;;;;;;19.95;47.72;100699.73;109936;1280;22324;-70
2023/05/18 22:30:28;;;;;;;16.70;10.60;;;;;;;19.91;48.78;100703.60;110170;1260;22173;-71
2023/05/18 22:32:57;;;;;;;13.30;12.00;;;;;;;19.85;49.66;100706.27;109973;1278;137616;-69
2023/05/18 22:35:23;;;;;;;12.90;11.10;;;;;;;19.78;50.24;100700.84;110237;1278;22792;-76
2023/05/18 22:37:50;;;;;;;14.60;12.30;;;;;;;19.73;51.03;100703.76;110033;1278;136841;-70
2023/05/18 22:40:17;;;;;;;17.00;11.40;;;;;;;19.70;51.13;100707.55;109958;1276;138317;-69
2023/05/18 22:42:43;;;;;;;11.50;10.40;;;;;;;19.68;49.80;100711.84;110020;1280;22189;-69
2023/05/18 22:45:10;;;;;;;11.70;10.60;;;;;;;19.68;48.91;100712.71;109911;1280;139703;-68
2023/05/18 22:47:38;;;;;;;10.90;10.00;;;;;;;19.69;48.56;100714.14;109897;1280;22289;-72
2023/05/18 22:50:06;;;;;;;11.80;9.10;;;;;;;19.71;47.99;100721.38;109790;1275;139233;-70
2023/05/18 22:52:34;;;;;;;10.80;9.80;;;;;;;19.74;47.68;100718.53;109917;1280;137968;-69
2023/05/18 22:55:00;;;;;;;16.40;11.30;;;;;;;19.76;47.43;100721.00;109985;1273;22527;-71
2023/05/18 22:57:27;;;;;;;10.30;9.20;;;;;;;19.80;47.37;100727.68;109946;1277;137841;-71
2023/05/18 22:59:53;;;;;;;10.90;9.80;;;;;;;19.82;47.39;100723.55;109909;1274;22595;-70
2023/05/18 23:02:20;;;;;;;12.90;11.60;;;;;;;19.75;47.41;100704.59;109887;1280;138728;-69
2023/05/18 23:04:47;;;;;;;12.40;11.20;;;;;;;19.82;47.40;100717.20;109935;1275;139716;-70
2023/05/18 23:07:13;;;;;;;12.30;11.10;;;;;;;19.82;47.37;100719.02;110007;1280;22896;-71
2023/05/18 23:09:41;;;;;;;12.50;11.30;;;;;;;19.83;47.32;100715.46;109831;1274;138390;-70
2023/05/18 23:12:09;;;;;;;13.90;11.00;;;;;;;19.84;47.37;100724.69;109933;1276;138147;-72
2023/05/18 23:14:36;;;;;;;11.00;10.00;;;;;;;19.84;47.64;100721.93;109916;1275;22848;-70
2023/05/18 23:17:03;;;;;;;11.10;9.90;;;;;;;19.83;47.83;100723.48;109872;1276;139403;-69
2023/05/18 23:19:32;;;;;;;11.40;10.20;;;;;;;19.83;47.66;100723.16;110047;1273;22433;-70
2023/05/18 23:21:59;;;;;;;13.30;10.00;;;;;;;19.83;47.65;100722.04;109864;1277;137946;-68
2023/05/18 23:24:26;;;;;;;11.80;10.60;;;;;;;19.84;47.86;100721.27;109846;1275;138830;-69
2023/05/18 23:26:52;;;;;;;14.10;10.30;;;;;;;19.83;47.78;100720.62;110050;1276;22288;-68
2023/05/18 23:29:19;;;;;;;12.90;11.50;;;;;;;19.82;47.98;100720.34;109894;1274;139920;-70
2023/05/18 23:31:46;;;;;;;14.90;10.80;;;;;;;19.81;48.06;100721.06;110009;1277;22848;-69
2023/05/18 23:34:13;;;;;;;10.20;9.30;;;;;;;19.81;48.41;100725.23;109875;1274;139567;-68
2023/05/18 23:36:43;;;;;;;10.90;9.90;;;;;;;19.79;48.33;100724.27;109764;1279;139258;-72
2023/05/18 23:39:10;;;;;;;10.50;9.00;;;;;;;19.79;48.46;100725.89;109990;1275;22313;-69
2023/05/18 23:41:37;;;;;;;10.20;9.30;;;;;;;19.79;48.56;100731.67;109862;1280;138862;-70
2023/05/18 23:44:05;;;;;;;10.60;9.50;;;;;;;19.80;48.55;100728.18;109905;1280;140315;-69
2023/05/18 23:46:33;;;;;;;10.30;9.20;;;;;;;19.81;48.72;100728.09;109938;1275;23053;-68
2023/05/18 23:49:00;;;;;;;10.60;9.50;;;;;;;19.81;48.61;100724.73;109895;1278;138151;-67
2023/05/18 23:51:30;;;;;;;9.90;8.60;;;;;;;19.80;48.71;100725.38;109987;1275;22207;-73
2023/05/18 23:53:57;;;;;;;12.10;8.70;;;;;;;19.80;48.80;100729.87;109850;1274;139599;-70
2023/05/18 23:56:24;;;;;;;9.90;9.00;;;;;;;19.80;48.85;100731.76;109861;1276;138724;-71
2023/05/18 23:58:51;;;;;;;13.40;10.30;;;;;;;19.80;49.18;100733.70;109968;1280;22235;-70
